createdAt,value
2022-09-02T00:02:02.281Z,19.90
2022-09-02T00:04:32.540Z,19.90
2022-09-02T00:07:02.692Z,19.80
2022-09-02T00:09:33.266Z,19.80
2022-09-02T00:12:03.152Z,19.70
2022-09-02T00:14:36.132Z,19.70
2022-09-02T00:17:09.833Z,19.80
2022-09-02T00:19:40.841Z,19.80
2022-09-02T00:22:11.041Z,19.70
2022-09-02T00:24:41.526Z,19.60
2022-09-02T00:27:11.770Z,19.70
2022-09-02T00:29:42.404Z,19.60
2022-09-02T00:32:14.954Z,19.50
2022-09-02T00:34:49.012Z,19.50
2022-09-02T00:37:19.352Z,19.50
2022-09-02T00:39:50.106Z,19.40
2022-09-02T00:42:20.279Z,19.40
2022-09-02T00:44:50.840Z,19.40
2022-09-02T00:47:23.620Z,19.40
2022-09-02T00:49:56.876Z,19.40
2022-09-02T00:52:32.374Z,19.30
2022-09-02T00:55:05.539Z,19.40
2022-09-02T00:57:39.918Z,19.40
2022-09-02T01:00:13.913Z,19.30
2022-09-02T01:02:49.523Z,19.20
2022-09-02T01:05:23.668Z,19.10
2022-09-02T01:07:55.238Z,19.20
2022-09-02T01:10:28.818Z,19.10
2022-09-02T01:12:59.975Z,19.00
2022-09-02T01:15:30.549Z,19.00
2022-09-02T01:18:03.782Z,18.80
2022-09-02T01:20:34.437Z,18.70
2022-09-02T01:23:06.892Z,18.70
2022-09-02T01:25:38.953Z,18.70
2022-09-02T01:28:11.821Z,18.70
2022-09-02T01:30:47.663Z,18.80
2022-09-02T01:33:19.372Z,18.80
2022-09-02T01:35:53.677Z,18.70
2022-09-02T01:38:27.526Z,18.60
2022-09-02T01:40:58.367Z,18.60
2022-09-02T01:43:31.172Z,18.70
2022-09-02T01:46:02.838Z,18.60
2022-09-02T01:48:33.109Z,18.60
2022-09-02T01:51:06.168Z,18.60
2022-09-02T01:53:38.987Z,20.20
2022-09-02T01:56:09.585Z,18.50
2022-09-02T01:58:39.418Z,18.50
2022-09-02T02:01:10.760Z,18.50
2022-09-02T02:03:42.059Z,18.40
2022-09-02T02:06:13.737Z,18.30
2022-09-02T02:08:47.626Z,18.30
2022-09-02T02:11:23.169Z,18.20
2022-09-02T02:13:54.119Z,18.10
2022-09-02T02:16:24.329Z,18.30
2022-09-02T02:18:54.648Z,18.30
2022-09-02T02:21:25.123Z,18.20
2022-09-02T02:24:01.907Z,18.20
2022-09-02T02:26:32.249Z,18.10
2022-09-02T02:29:02.844Z,18.20
2022-09-02T02:31:32.852Z,18.20
2022-09-02T02:34:03.364Z,18.10
2022-09-02T02:36:34.115Z,18.10
2022-09-02T02:39:09.256Z,18.10
2022-09-02T02:41:40.338Z,18.10
2022-09-02T02:44:15.245Z,18.00
2022-09-02T02:46:45.562Z,17.90
2022-09-02T02:49:16.129Z,17.90
2022-09-02T02:51:46.434Z,17.90
2022-09-02T02:54:19.188Z,18.00
2022-09-02T02:56:49.431Z,17.90
2022-09-02T02:59:19.552Z,17.90
2022-09-02T03:01:49.869Z,17.90
2022-09-02T03:04:20.280Z,18.00
2022-09-02T03:06:51.289Z,18.00
2022-09-02T03:09:24.110Z,17.90
2022-09-02T03:11:54.644Z,17.90
2022-09-02T03:14:26.140Z,17.90
2022-09-02T03:16:56.751Z,17.80
2022-09-02T03:19:27.797Z,17.90
2022-09-02T03:21:58.007Z,17.80
2022-09-02T03:24:30.900Z,17.70
2022-09-02T03:27:01.220Z,17.70
2022-09-02T03:29:31.424Z,17.60
2022-09-02T03:32:02.956Z,17.60
2022-09-02T03:34:34.634Z,17.80
2022-09-02T03:37:05.289Z,17.90
2022-09-02T03:39:39.853Z,18.00
2022-09-02T03:42:19.738Z,18.10
2022-09-02T03:44:50.106Z,18.20
2022-09-02T03:47:24.507Z,18.20
2022-09-02T03:49:55.052Z,18.10
2022-09-02T03:52:25.597Z,18.10
2022-09-02T03:54:58.433Z,18.10
2022-09-02T03:57:28.720Z,18.20
2022-09-02T04:00:00.397Z,18.10
2022-09-02T04:02:30.539Z,18.10
2022-09-02T04:05:00.713Z,18.10
2022-09-02T04:07:30.907Z,18.10
2022-09-02T04:10:05.039Z,18.00
2022-09-02T04:12:35.301Z,18.00
2022-09-02T04:15:05.993Z,18.00
2022-09-02T04:17:38.748Z,18.00
2022-09-02T04:20:11.368Z,18.00
2022-09-02T04:22:41.743Z,18.00
2022-09-02T04:25:14.907Z,18.00
2022-09-02T04:27:45.195Z,18.00
2022-09-02T04:30:17.345Z,18.00
2022-09-02T04:32:47.594Z,18.00
2022-09-02T04:35:17.801Z,18.00
2022-09-02T04:37:49.513Z,18.00
2022-09-02T04:40:24.189Z,18.00
2022-09-02T04:42:55.817Z,18.00
2022-09-02T04:45:29.772Z,18.00
2022-09-02T04:48:00.363Z,18.00
2022-09-02T04:50:31.217Z,18.00
2022-09-02T04:53:01.663Z,18.00
2022-09-02T04:55:34.863Z,18.00
2022-09-02T04:58:05.653Z,18.00
2022-09-02T05:00:35.929Z,18.00
2022-09-02T05:03:06.936Z,18.00
2022-09-02T05:05:39.387Z,18.00
2022-09-02T05:08:10.317Z,18.00
2022-09-02T05:10:43.423Z,18.00
2022-09-02T05:13:13.741Z,18.00
2022-09-02T05:15:45.013Z,18.10
2022-09-02T05:18:15.454Z,18.10
2022-09-02T05:20:46.090Z,18.10
2022-09-02T05:23:16.216Z,18.10
2022-09-02T05:25:48.932Z,18.10
2022-09-02T05:28:19.009Z,18.10
2022-09-02T05:30:49.118Z,18.10
2022-09-02T05:33:19.288Z,18.20
2022-09-02T05:35:50.092Z,18.20
2022-09-02T05:38:20.434Z,18.10
2022-09-02T05:40:53.157Z,18.20
2022-09-02T05:43:23.634Z,18.20
2022-09-02T05:45:53.897Z,18.20
2022-09-02T05:48:36.333Z,18.30
2022-09-02T05:51:08.035Z,18.30
2022-09-02T05:53:38.138Z,18.30
2022-09-02T05:56:11.389Z,18.30
2022-09-02T05:58:41.565Z,18.30
2022-09-02T06:01:12.617Z,18.30
2022-09-02T06:03:43.203Z,18.50
2022-09-02T06:06:13.103Z,18.60
2022-09-02T06:08:43.652Z,18.70
2022-09-02T06:11:18.039Z,18.80
2022-09-02T06:13:48.971Z,18.80
2022-09-02T06:16:20.979Z,18.80
2022-09-02T06:18:52.838Z,18.80
2022-09-02T06:21:23.663Z,18.70
2022-09-02T06:23:53.847Z,18.60
2022-09-02T06:26:26.515Z,18.70
2022-09-02T06:28:56.777Z,18.80
2022-09-02T06:31:27.515Z,18.80
2022-09-02T06:34:05.693Z,19.00
2022-09-02T06:36:36.090Z,19.10
2022-09-02T06:39:06.682Z,19.00
2022-09-02T06:41:41.047Z,19.10
2022-09-02T06:44:12.095Z,18.90
2022-09-02T06:46:47.949Z,19.00
2022-09-02T06:49:19.180Z,19.10
2022-09-02T06:51:51.264Z,19.20
2022-09-02T06:54:23.040Z,19.00
2022-09-02T06:56:55.937Z,18.90
2022-09-02T06:59:27.162Z,18.90
2022-09-02T07:01:58.241Z,19.00
2022-09-02T07:04:40.800Z,19.20
2022-09-02T07:07:12.185Z,19.10
2022-09-02T07:09:42.789Z,19.20
2022-09-02T07:12:16.911Z,19.50
2022-09-02T07:14:47.385Z,19.50
2022-09-02T07:17:21.985Z,19.50
2022-09-02T07:19:52.555Z,19.50
2022-09-02T07:22:22.321Z,19.60
2022-09-02T07:24:52.553Z,19.80
2022-09-02T07:27:25.220Z,19.90
2022-09-02T07:29:56.474Z,19.90
2022-09-02T07:32:26.562Z,19.90
2022-09-02T07:34:56.588Z,19.90
2022-09-02T07:37:27.366Z,20.00
2022-09-02T07:39:57.529Z,20.00
2022-09-02T07:42:30.249Z,20.10
2022-09-02T07:45:01.408Z,20.10
2022-09-02T07:47:31.796Z,20.20
2022-09-02T07:50:20.185Z,20.30
2022-09-02T07:52:51.785Z,20.40
2022-09-02T07:55:21.999Z,20.60
2022-09-02T07:57:56.914Z,20.70
2022-09-02T08:00:27.945Z,20.70
2022-09-02T08:02:58.557Z,20.90
2022-09-02T08:05:29.269Z,21.20
2022-09-02T08:07:59.329Z,21.50
2022-09-02T08:10:30.712Z,21.50
2022-09-02T08:13:05.637Z,21.90
2022-09-02T08:15:37.366Z,22.50
2022-09-02T08:18:09.410Z,23.20
2022-09-02T08:20:51.152Z,23.90
2022-09-02T08:23:36.085Z,24.30
2022-09-02T08:26:08.446Z,24.80
2022-09-02T08:28:41.391Z,25.20
2022-09-02T08:31:11.777Z,25.60
2022-09-02T08:33:42.078Z,26.00
2022-09-02T08:36:15.290Z,26.40
2022-09-02T08:38:46.053Z,26.50
2022-09-02T08:41:25.391Z,26.70
2022-09-02T08:44:01.257Z,27.30
2022-09-02T08:46:36.147Z,27.60
2022-09-02T08:49:11.113Z,27.60
2022-09-02T08:51:53.138Z,27.90
2022-09-02T08:54:29.336Z,28.70
2022-09-02T08:57:00.069Z,28.40
2022-09-02T08:59:34.913Z,27.50
2022-09-02T09:02:13.310Z,28.00
2022-09-02T09:05:06.323Z,27.90
2022-09-02T09:07:40.565Z,27.60
2022-09-02T09:10:21.553Z,28.00
2022-09-02T09:13:17.597Z,28.90
2022-09-02T09:15:57.133Z,29.20
2022-09-02T09:18:39.508Z,29.10
2022-09-02T09:21:11.308Z,29.70
2022-09-02T09:23:43.115Z,29.70
2022-09-02T09:26:14.993Z,30.30
2022-09-02T09:28:47.364Z,31.10
2022-09-02T09:31:21.717Z,31.00
2022-09-02T09:33:59.758Z,31.00
2022-09-02T09:36:49.412Z,31.10
2022-09-02T09:39:29.849Z,30.60
2022-09-02T09:42:01.816Z,29.90
2022-09-02T09:44:48.235Z,30.40
2022-09-02T09:47:23.289Z,31.50
2022-09-02T09:49:55.046Z,31.10
2022-09-02T09:52:27.438Z,30.80
2022-09-02T09:55:15.616Z,31.70
2022-09-02T09:57:53.415Z,33.00
2022-09-02T10:00:29.414Z,32.50
2022-09-02T10:03:04.133Z,32.70
2022-09-02T10:05:37.453Z,34.00
2022-09-02T10:08:22.021Z,34.60
2022-09-02T10:11:03.991Z,34.20
2022-09-02T10:13:36.098Z,34.60
2022-09-02T10:16:24.968Z,35.10
2022-09-02T10:19:02.509Z,35.70
2022-09-02T10:21:57.844Z,36.50
2022-09-02T10:24:48.935Z,37.60
2022-09-02T10:27:24.670Z,37.60
2022-09-02T10:30:00.963Z,35.30
2022-09-02T10:32:48.014Z,34.40
2022-09-02T10:35:28.079Z,34.40
2022-09-02T10:38:14.132Z,33.40
2022-09-02T10:40:50.753Z,32.90
2022-09-02T10:43:36.509Z,33.00
2022-09-02T10:46:12.049Z,33.50
2022-09-02T10:48:56.801Z,34.50
2022-09-02T10:51:37.503Z,34.30
2022-09-02T10:54:20.338Z,33.20
2022-09-02T10:57:01.806Z,33.40
2022-09-02T10:59:38.583Z,32.40
2022-09-02T11:02:17.067Z,33.20
2022-09-02T11:04:55.010Z,33.70
2022-09-02T11:07:33.068Z,35.30
2022-09-02T11:10:08.087Z,35.30
2022-09-02T11:12:42.141Z,34.80
2022-09-02T11:15:19.446Z,34.30
2022-09-02T11:17:56.065Z,34.20
2022-09-02T11:20:35.928Z,35.20
2022-09-02T11:23:19.090Z,34.50
2022-09-02T11:25:57.502Z,33.50
2022-09-02T11:28:36.050Z,33.30
2022-09-02T11:31:10.403Z,32.90
2022-09-02T11:33:52.459Z,32.70
2022-09-02T11:36:23.406Z,31.90
2022-09-02T11:39:02.398Z,30.90
2022-09-02T11:41:46.855Z,30.40
2022-09-02T11:44:52.889Z,30.10
2022-09-02T11:47:59.257Z,29.80
2022-09-02T11:50:48.910Z,29.40
2022-09-02T11:53:24.209Z,29.40
2022-09-02T11:55:59.634Z,29.50
2022-09-02T11:58:41.280Z,29.70
2022-09-02T12:01:29.555Z,29.90
2022-09-02T12:07:32.017Z,29.60
2022-09-02T12:10:06.427Z,29.00
2022-09-02T12:13:13.079Z,29.30
2022-09-02T12:15:44.057Z,29.70
2022-09-02T12:18:31.255Z,29.40
2022-09-02T12:21:16.438Z,29.40
2022-09-02T12:24:25.637Z,29.30
2022-09-02T12:27:14.045Z,29.20
2022-09-02T12:29:47.256Z,29.20
2022-09-02T12:33:03.790Z,28.70
2022-09-02T12:35:52.800Z,28.50
2022-09-02T12:38:38.887Z,28.90
2022-09-02T12:41:24.679Z,29.00
2022-09-02T12:44:26.776Z,29.10
2022-09-02T12:47:06.783Z,28.60
2022-09-02T12:49:51.264Z,28.20
2022-09-02T12:52:46.668Z,27.90
2022-09-02T12:55:22.576Z,28.00
2022-09-02T12:57:54.216Z,28.30
2022-09-02T13:00:36.828Z,28.50
2022-09-02T13:03:28.212Z,28.40
2022-09-02T13:06:05.014Z,28.30
2022-09-02T13:12:37.017Z,28.60
2022-09-02T13:15:23.403Z,28.60
2022-09-02T13:18:26.917Z,28.40
2022-09-02T13:21:19.963Z,28.30
2022-09-02T13:24:31.545Z,28.50
2022-09-02T13:27:48.171Z,28.50
2022-09-02T13:30:22.425Z,28.60
2022-09-02T13:33:02.644Z,28.60
2022-09-02T13:35:40.643Z,28.80
2022-09-02T13:38:17.395Z,28.80
2022-09-02T13:40:48.873Z,28.70
2022-09-02T13:43:24.271Z,28.60
2022-09-02T13:45:56.195Z,28.50
2022-09-02T13:48:28.694Z,28.60
2022-09-02T13:51:10.785Z,28.50
2022-09-02T13:53:45.822Z,28.50
2022-09-02T13:56:36.052Z,28.60
2022-09-02T13:59:06.786Z,28.70
2022-09-02T14:01:40.252Z,28.70
2022-09-02T14:04:17.621Z,28.80
2022-09-02T14:06:51.805Z,28.60
2022-09-02T14:09:25.313Z,28.70
2022-09-02T14:11:56.727Z,28.60
2022-09-02T14:14:28.235Z,27.80
2022-09-02T14:17:23.412Z,28.50
2022-09-02T14:19:57.145Z,28.50
2022-09-02T14:22:33.998Z,28.50
2022-09-02T14:25:10.474Z,28.40
2022-09-02T14:27:41.704Z,28.40
2022-09-02T14:30:12.652Z,28.40
2022-09-02T14:32:42.861Z,28.30
2022-09-02T14:35:23.211Z,28.30
2022-09-02T14:37:59.731Z,28.30
2022-09-02T14:40:36.800Z,28.30
2022-09-02T14:43:14.555Z,28.20
2022-09-02T14:45:49.500Z,28.20
2022-09-02T14:48:25.170Z,28.10
2022-09-02T14:51:02.867Z,28.00
2022-09-02T14:53:37.695Z,28.00
2022-09-02T14:56:09.371Z,28.00
2022-09-02T14:58:39.626Z,28.00
2022-09-02T15:01:12.440Z,28.00
2022-09-02T15:03:44.513Z,28.00
2022-09-02T15:06:15.354Z,28.00
2022-09-02T15:08:48.770Z,28.00
2022-09-02T15:11:21.426Z,27.90
2022-09-02T15:13:51.582Z,27.80
2022-09-02T15:16:21.862Z,27.80
2022-09-02T15:18:52.495Z,27.80
2022-09-02T15:21:22.622Z,27.70
2022-09-02T15:23:55.803Z,27.80
2022-09-02T15:26:26.160Z,27.80
2022-09-02T15:28:56.432Z,27.60
2022-09-02T15:31:26.945Z,27.60
2022-09-02T15:33:57.168Z,27.70
2022-09-02T15:36:27.970Z,27.70
2022-09-02T15:39:00.813Z,27.70
2022-09-02T15:41:31.865Z,27.70
2022-09-02T15:44:03.527Z,27.70
2022-09-02T15:46:35.163Z,27.80
2022-09-02T15:49:07.765Z,27.80
2022-09-02T15:51:39.472Z,27.70
2022-09-02T15:54:16.324Z,27.70
2022-09-02T15:56:48.738Z,27.70
2022-09-02T15:59:21.488Z,27.60
2022-09-02T16:01:53.053Z,27.50
2022-09-02T16:04:23.244Z,27.50
2022-09-02T16:06:54.208Z,27.40
2022-09-02T16:09:27.159Z,27.30
2022-09-02T16:11:58.902Z,27.30
2022-09-02T16:14:29.481Z,27.20
2022-09-02T16:17:00.210Z,27.20
2022-09-02T16:19:31.298Z,27.30
2022-09-02T16:22:02.255Z,27.20
2022-09-02T16:24:35.078Z,27.20
2022-09-02T16:27:05.378Z,27.20
2022-09-02T16:29:37.376Z,27.20
2022-09-02T16:32:24.317Z,27.20
2022-09-02T16:34:58.448Z,27.20
2022-09-02T16:37:28.654Z,27.20
2022-09-02T16:40:01.553Z,27.10
2022-09-02T16:42:34.830Z,27.10
2022-09-02T16:45:08.703Z,27.10
2022-09-02T16:47:39.010Z,27.10
2022-09-02T16:50:12.163Z,27.10
2022-09-02T16:52:42.323Z,27.00
2022-09-02T16:55:18.001Z,27.00
2022-09-02T16:57:48.437Z,26.90
2022-09-02T17:00:20.038Z,26.90
2022-09-02T17:02:50.382Z,26.80
2022-09-02T17:05:20.740Z,26.80
2022-09-02T17:07:52.384Z,26.80
2022-09-02T17:10:25.263Z,26.80
2022-09-02T17:12:57.560Z,26.70
2022-09-02T17:15:29.141Z,26.80
2022-09-02T17:17:59.695Z,26.60
2022-09-02T17:20:29.883Z,26.50
2022-09-02T17:22:59.732Z,26.50
2022-09-02T17:25:32.244Z,26.50
2022-09-02T17:28:02.595Z,26.40
2022-09-02T17:30:32.853Z,26.30
2022-09-02T17:33:03.484Z,26.40
2022-09-02T17:35:33.690Z,26.20
2022-09-02T17:38:03.783Z,26.30
2022-09-02T17:40:49.005Z,26.30
2022-09-02T17:43:19.439Z,26.20
2022-09-02T17:45:49.840Z,26.20
2022-09-02T17:48:45.184Z,26.10
2022-09-02T17:51:13.003Z,26.10
2022-09-02T17:53:50.011Z,26.00
2022-09-02T17:56:43.587Z,26.00
2022-09-02T17:59:22.735Z,26.00
2022-09-02T18:02:06.567Z,25.80
2022-09-02T18:04:49.550Z,25.80
2022-09-02T18:07:28.809Z,25.80
2022-09-02T18:09:59.028Z,25.80
2022-09-02T18:12:31.481Z,25.80
2022-09-02T18:15:06.064Z,25.70
2022-09-02T18:17:40.009Z,25.70
2022-09-02T18:20:15.162Z,25.60
2022-09-02T18:23:20.849Z,25.50
2022-09-02T18:25:56.493Z,25.50
2022-09-02T18:28:51.960Z,25.50
2022-09-02T18:31:37.010Z,25.40
2022-09-02T18:34:25.005Z,25.40
2022-09-02T18:37:05.940Z,25.30
2022-09-02T18:40:02.521Z,25.30
2022-09-02T18:42:43.408Z,25.20
2022-09-02T18:45:25.050Z,25.20
2022-09-02T18:48:01.194Z,25.00
2022-09-02T18:50:52.295Z,25.10
2022-09-02T18:53:25.992Z,25.00
2022-09-02T18:55:57.205Z,24.90
2022-09-02T18:58:36.805Z,24.90
2022-09-02T19:01:17.115Z,24.90
2022-09-02T19:03:47.504Z,24.90
2022-09-02T19:06:20.187Z,24.90
2022-09-02T19:08:50.351Z,24.80
2022-09-02T19:11:22.345Z,24.80
2022-09-02T19:13:55.690Z,24.60
2022-09-02T19:16:30.050Z,24.60
2022-09-02T19:19:00.295Z,24.60
2022-09-02T19:21:33.899Z,24.60
2022-09-02T19:24:05.045Z,24.50
2022-09-02T19:26:35.812Z,24.50
2022-09-02T19:29:08.136Z,24.50
2022-09-02T19:31:44.157Z,24.90
2022-09-02T19:34:14.492Z,24.50
2022-09-02T19:36:48.413Z,24.40
2022-09-02T19:39:18.706Z,24.40
2022-09-02T19:41:49.461Z,24.30
2022-09-02T19:44:21.473Z,24.30
2022-09-02T19:49:44.692Z,24.20
2022-09-02T19:52:14.709Z,24.20
2022-09-02T19:54:45.026Z,24.20
2022-09-02T19:57:15.013Z,24.10
2022-09-02T19:59:44.897Z,24.00
2022-09-02T20:02:17.952Z,24.00
2022-09-02T20:04:48.155Z,23.90
2022-09-02T20:07:18.551Z,23.90
2022-09-02T20:09:48.844Z,23.90
2022-09-02T20:12:19.182Z,23.80
2022-09-02T20:14:49.917Z,23.80
2022-09-02T20:17:24.891Z,23.70
2022-09-02T20:20:01.662Z,23.60
2022-09-02T20:22:32.884Z,23.40
2022-09-02T20:25:03.435Z,23.20
2022-09-02T20:27:48.581Z,23.20
2022-09-02T20:30:20.731Z,23.10
2022-09-02T20:33:11.505Z,23.20
2022-09-02T20:35:54.275Z,23.00
2022-09-02T20:38:42.940Z,23.00
2022-09-02T20:41:21.818Z,23.00
2022-09-02T20:44:06.994Z,23.00
2022-09-02T20:46:53.695Z,22.90
2022-09-02T20:49:42.150Z,22.80
2022-09-02T20:52:20.083Z,22.80
2022-09-02T20:54:57.913Z,22.90
2022-09-02T20:57:37.975Z,22.80
2022-09-02T21:00:11.331Z,22.80
2022-09-02T21:02:48.520Z,22.80
2022-09-02T21:05:27.739Z,22.80
2022-09-02T21:08:04.105Z,22.80
2022-09-02T21:10:39.499Z,22.70
2022-09-02T21:13:14.526Z,22.70
2022-09-02T21:15:50.786Z,22.60
2022-09-02T21:18:29.214Z,22.30
2022-09-02T21:21:07.595Z,22.30
2022-09-02T21:23:43.389Z,22.30
2022-09-02T21:26:18.800Z,22.30
2022-09-02T21:28:57.631Z,22.30
2022-09-02T21:31:35.564Z,22.20
2022-09-02T21:34:10.853Z,22.20
2022-09-02T21:36:44.212Z,22.20
2022-09-02T21:39:22.634Z,22.20
2022-09-02T21:42:03.167Z,22.10
2022-09-02T21:44:44.617Z,22.20
2022-09-02T21:47:23.491Z,22.00
2022-09-02T21:50:11.985Z,22.00
2022-09-02T21:52:58.196Z,21.90
2022-09-02T21:55:47.056Z,22.10
2022-09-02T21:58:37.146Z,22.00
2022-09-02T22:01:10.162Z,21.90
2022-09-02T22:03:45.040Z,21.80
2022-09-02T22:06:25.509Z,21.80
2022-09-02T22:09:07.309Z,21.80
2022-09-02T22:11:41.837Z,21.90
2022-09-02T22:14:17.344Z,21.80
2022-09-02T22:16:59.176Z,21.80
2022-09-02T22:19:32.821Z,21.50
2022-09-02T22:22:09.808Z,21.60
2022-09-02T22:24:42.933Z,21.60
2022-09-02T22:27:19.369Z,21.40
2022-09-02T22:29:53.949Z,21.40
2022-09-02T22:32:27.252Z,21.40
2022-09-02T22:35:09.561Z,21.40
2022-09-02T22:37:49.153Z,21.50
2022-09-02T22:40:27.001Z,21.40
2022-09-02T22:43:04.772Z,21.40
2022-09-02T22:45:52.621Z,21.40
2022-09-02T22:48:54.617Z,21.40
2022-09-02T22:51:44.722Z,21.30
2022-09-02T22:54:14.521Z,21.30
2022-09-02T22:56:57.341Z,21.10
2022-09-02T22:59:45.322Z,21.10
2022-09-02T23:02:23.421Z,21.00
2022-09-02T23:05:38.676Z,21.00
2022-09-02T23:08:09.801Z,20.80
2022-09-02T23:10:48.787Z,20.80
2022-09-02T23:13:28.988Z,20.80
2022-09-02T23:16:12.001Z,20.80
2022-09-02T23:18:52.366Z,20.70
2022-09-02T23:21:30.652Z,20.80
2022-09-02T23:24:13.592Z,20.80
2022-09-02T23:26:54.492Z,20.70
2022-09-02T23:29:29.782Z,20.70
2022-09-02T23:32:15.626Z,20.60
2022-09-02T23:35:05.834Z,20.50
2022-09-02T23:37:39.809Z,20.50
2022-09-02T23:40:18.532Z,20.50
2022-09-02T23:42:49.868Z,20.50
2022-09-02T23:45:28.896Z,20.40
2022-09-02T23:48:20.642Z,20.40
2022-09-02T23:51:04.140Z,20.40
2022-09-02T23:53:40.538Z,20.50
2022-09-02T23:56:21.015Z,20.30
2022-09-02T23:59:09.427Z,20.30
